Time;durP1;ratioP1;P1;durP2;ratioP2;P2;SDS_P1;SDS_P2;PMS_P1;PMS_P2;Temp;Humidity;BMP_temperature;BMP_pressure;BME280_temperature;BME280_humidity;BME280_pressure;Samples;Min_cycle;Max_cycle;Signal;HPM_P1;HPM_P2
2022/10/13 00:00:29;;;;;;;29.08;11.95;;;;;;;10.15;94.08;101835.19;5083095;28;20024;-74
2022/10/13 00:02:58;;;;;;;27.67;13.23;;;;;;;10.15;94.13;101836.06;5108735;28;20050;-73
2022/10/13 00:05:24;;;;;;;21.83;12.27;;;;;;;10.19;94.03;101832.22;5108679;28;20209;-74
2022/10/13 00:07:49;;;;;;;26.40;12.23;;;;;;;10.23;94.21;101830.22;5099451;28;20107;-75
2022/10/13 00:10:14;;;;;;;27.23;12.73;;;;;;;10.22;94.11;101826.63;5087858;28;20507;-74
2022/10/13 00:12:40;;;;;;;22.13;11.82;;;;;;;10.20;93.36;101825.81;5089075;28;20032;-74
2022/10/13 00:15:08;;;;;;;29.98;12.35;;;;;;;10.20;94.03;101819.50;5099765;28;20710;-74
2022/10/13 00:17:35;;;;;;;23.73;12.02;;;;;;;10.18;93.30;101819.59;5108276;28;20190;-74
2022/10/13 00:20:02;;;;;;;24.73;11.98;;;;;;;10.20;93.64;101820.38;5093586;28;20043;-74
2022/10/13 00:22:27;;;;;;;25.08;11.75;;;;;;;10.21;94.05;101814.00;5087465;28;20133;-74
2022/10/13 00:24:53;;;;;;;25.75;12.73;;;;;;;10.19;94.09;101805.03;5091907;28;20150;-74
2022/10/13 00:27:19;;;;;;;19.35;11.23;;;;;;;10.16;93.91;101807.03;5091264;28;20391;-74
2022/10/13 00:29:44;;;;;;;22.58;12.05;;;;;;;10.20;93.87;101808.59;5089690;28;20475;-74
2022/10/13 00:32:10;;;;;;;25.20;13.02;;;;;;;10.19;93.81;101813.16;5108783;28;20027;-73
2022/10/13 00:34:36;;;;;;;23.20;12.57;;;;;;;10.20;94.35;101808.59;5093258;28;20482;-74
2022/10/13 00:37:02;;;;;;;26.27;13.02;;;;;;;10.25;93.94;101814.69;5095096;28;20068;-74
2022/10/13 00:39:28;;;;;;;23.33;12.57;;;;;;;10.29;93.65;101805.41;5089798;28;20028;-74
2022/10/13 00:41:54;;;;;;;20.63;12.43;;;;;;;10.31;93.95;101810.78;5091491;28;20040;-74
2022/10/13 00:44:54;;;;;;;24.20;11.88;;;;;;;10.32;93.81;101801.66;5089454;28;20040;-73
2022/10/13 00:47:20;;;;;;;22.25;12.15;;;;;;;10.30;93.49;101809.88;5090984;28;20036;-73
2022/10/13 00:49:46;;;;;;;26.75;13.23;;;;;;;10.30;93.81;101801.72;5090941;28;20062;-73
2022/10/13 00:52:13;;;;;;;24.67;12.20;;;;;;;10.33;93.00;101809.72;5090886;28;20079;-73
2022/10/13 00:54:39;;;;;;;27.90;12.07;;;;;;;10.33;93.59;101801.56;5089643;28;20046;-73
2022/10/13 00:57:07;;;;;;;25.27;12.45;;;;;;;10.35;93.07;101801.47;5090608;28;20036;-74
2022/10/13 00:59:33;;;;;;;24.98;11.88;;;;;;;10.36;93.57;101812.28;5090178;28;20093;-74
2022/10/13 01:02:00;;;;;;;23.60;11.95;;;;;;;10.35;93.40;101804.19;5089386;28;20039;-74
2022/10/13 01:04:36;;;;;;;25.27;12.27;;;;;;;10.36;93.35;101804.13;5089604;28;20040;-73
2022/10/13 01:07:02;;;;;;;20.63;11.43;;;;;;;10.34;93.30;101800.59;5089375;28;20044;-74
2022/10/13 01:09:34;;;;;;;27.65;12.30;;;;;;;10.35;93.16;101801.47;5090592;28;20475;-74
2022/10/13 01:12:12;;;;;;;19.65;11.95;;;;;;;10.36;93.02;101801.41;5090601;28;20047;-74
2022/10/13 01:14:40;;;;;;;22.02;11.90;;;;;;;10.37;93.24;101808.59;5090284;28;20357;-74
2022/10/13 01:17:30;;;;;;;18.23;11.23;;;;;;;10.40;93.24;101797.53;5090109;28;20439;-74
2022/10/13 01:20:23;;;;;;;22.85;11.45;;;;;;;10.41;92.90;101796.56;5089118;28;20058;-74
2022/10/13 01:23:11;;;;;;;20.13;11.17;;;;;;;10.39;92.99;101801.22;5090307;28;20039;-74
2022/10/13 01:25:51;;;;;;;25.67;11.38;;;;;;;10.43;93.07;101797.34;5100046;28;20553;-74
2022/10/13 01:28:32;;;;;;;28.63;11.95;;;;;;;10.40;92.73;101794.81;5088974;28;20443;-74
2022/10/13 01:31:09;;;;;;;22.57;12.53;;;;;;;10.45;92.75;101808.16;5072162;28;20035;-74
2022/10/13 01:34:02;;;;;;;21.75;10.90;;;;;;;10.43;92.92;101793.75;5090182;28;20046;-74
2022/10/13 01:36:45;;;;;;;26.08;11.77;;;;;;;10.41;93.16;101795.69;5088804;28;20032;-74
2022/10/13 01:39:25;;;;;;;23.40;11.20;;;;;;;10.43;93.26;101791.91;5089847;28;20039;-74
2022/10/13 01:42:00;;;;;;;23.17;12.45;;;;;;;10.40;93.50;101796.66;5089913;28;20040;-74
2022/10/13 01:44:34;;;;;;;30.10;12.35;;;;;;;10.41;93.26;101793.84;5089938;28;20495;-74
2022/10/13 01:47:01;;;;;;;26.77;11.55;;;;;;;10.44;93.57;101787.34;5088506;28;20172;-74
2022/10/13 01:49:32;;;;;;;24.15;12.43;;;;;;;10.42;93.06;101786.56;5071762;28;20020;-74
2022/10/13 01:52:01;;;;;;;28.83;11.93;;;;;;;10.44;93.80;101790.06;5090154;28;20084;-74
2022/10/13 01:54:27;;;;;;;28.27;11.35;;;;;;;10.46;93.42;101793.59;5091954;28;20043;-74
2022/10/13 01:56:55;;;;;;;21.30;11.43;;;;;;;10.46;93.66;101780.00;5090084;28;20590;-74
2022/10/13 01:59:23;;;;;;;23.20;11.52;;;;;;;10.50;93.81;101783.44;5090724;28;20040;-74
2022/10/13 02:02:30;;;;;;;21.90;10.75;;;;;;;10.50;93.38;101778.84;5089440;28;20136;-74
2022/10/13 02:05:07;;;;;;;25.38;11.60;;;;;;;10.55;93.61;101776.75;5044236;28;20051;-74
2022/10/13 02:07:40;;;;;;;18.27;10.38;;;;;;;10.56;93.37;101769.47;5088227;28;20040;-74
2022/10/13 02:10:11;;;;;;;27.95;12.25;;;;;;;10.55;93.56;101767.72;5065261;28;20036;-74
2022/10/13 02:13:08;;;;;;;26.80;12.18;;;;;;;10.52;94.17;101768.75;5067050;28;20032;-75
2022/10/13 02:15:42;;;;;;;30.65;11.60;;;;;;;10.56;93.91;101764.00;5067857;28;20116;-75
2022/10/13 02:18:12;;;;;;;24.85;11.75;;;;;;;10.57;93.84;101771.22;5067955;28;20037;-74
2022/10/13 02:20:41;;;;;;;24.20;11.88;;;;;;;10.57;93.86;101758.47;5068385;28;20541;-74
2022/10/13 02:23:10;;;;;;;22.77;10.98;;;;;;;10.57;93.74;101753.03;5068890;28;20025;-74
2022/10/13 02:25:36;;;;;;;27.45;11.98;;;;;;;10.60;93.66;101746.56;5068927;28;20052;-74
2022/10/13 02:28:02;;;;;;;24.42;11.05;;;;;;;10.61;93.48;101751.03;5065243;28;20024;-74
2022/10/13 02:30:31;;;;;;;22.88;11.95;;;;;;;10.60;93.59;101750.16;5066124;28;20028;-74
2022/10/13 02:32:58;;;;;;;23.55;11.35;;;;;;;10.61;93.69;101742.84;5068021;28;20519;-74
2022/10/13 02:35:24;;;;;;;23.83;11.45;;;;;;;10.64;93.58;101749.00;5069001;28;20062;-74
2022/10/13 02:37:49;;;;;;;30.13;12.25;;;;;;;10.64;93.94;101746.28;5066479;28;20063;-74
2022/10/13 02:40:14;;;;;;;20.58;11.77;;;;;;;10.67;93.71;101748.81;5068509;28;20012;-74
2022/10/13 02:42:40;;;;;;;29.13;11.68;;;;;;;10.69;93.66;101746.00;5068048;28;20048;-74
2022/10/13 02:45:06;;;;;;;26.55;12.10;;;;;;;10.71;93.47;101741.34;5066858;28;20021;-74
2022/10/13 02:47:31;;;;;;;26.90;12.00;;;;;;;10.70;94.01;101734.16;5050748;28;20544;-74
2022/10/13 02:49:59;;;;;;;25.48;11.00;;;;;;;10.71;93.38;101735.91;5068707;28;20025;-74
2022/10/13 02:52:24;;;;;;;20.17;11.05;;;;;;;10.72;93.23;101732.19;5067464;28;20055;-74
2022/10/13 02:54:50;;;;;;;23.98;11.73;;;;;;;10.73;93.49;101732.13;5067934;28;20086;-74
2022/10/13 02:57:16;;;;;;;24.35;10.98;;;;;;;10.72;93.47;101730.38;5067209;28;20032;-74
2022/10/13 02:59:42;;;;;;;21.77;11.50;;;;;;;10.70;93.62;101726.00;5064168;28;20034;-74
2022/10/13 03:02:07;;;;;;;19.88;9.85;;;;;;;10.68;93.87;101731.53;5066015;28;20036;-74
2022/10/13 03:04:32;;;;;;;19.58;10.50;;;;;;;10.67;93.64;101727.03;5066990;28;20033;-74
2022/10/13 03:06:58;;;;;;;23.02;11.02;;;;;;;10.66;93.08;101732.56;5068339;28;20062;-74
2022/10/13 03:09:24;;;;;;;20.55;10.57;;;;;;;10.65;93.68;101715.38;5087651;28;20502;-74
2022/10/13 03:11:49;;;;;;;21.77;10.85;;;;;;;10.65;93.97;101725.38;5087264;28;20521;-74
2022/10/13 03:14:14;;;;;;;25.55;11.85;;;;;;;10.61;93.68;101716.53;5100530;28;20028;-74
2022/10/13 03:16:40;;;;;;;23.45;11.18;;;;;;;10.62;93.99;101714.66;5088401;28;20043;-74
2022/10/13 03:19:08;;;;;;;19.10;10.07;;;;;;;10.61;94.01;101718.38;5086902;28;20491;-74
2022/10/13 03:21:33;;;;;;;21.88;10.60;;;;;;;10.60;94.24;101717.50;5070323;28;20039;-74
2022/10/13 03:23:59;;;;;;;27.40;9.98;;;;;;;10.60;94.42;101713.91;5087790;28;20036;-74
2022/10/13 03:26:24;;;;;;;21.88;10.48;;;;;;;10.57;93.96;101712.22;5108968;28;20028;-74
2022/10/13 03:28:51;;;;;;;17.83;9.73;;;;;;;10.64;94.56;101704.59;5096762;28;20036;-74
2022/10/13 03:31:17;;;;;;;20.42;10.80;;;;;;;10.66;94.05;101708.09;5088123;28;20384;-74
2022/10/13 03:33:42;;;;;;;22.98;11.27;;;;;;;10.73;94.29;101709.50;5088334;28;20368;-74
2022/10/13 03:36:09;;;;;;;22.52;9.95;;;;;;;10.76;93.55;101702.97;5088890;28;20382;-74
2022/10/13 03:38:36;;;;;;;20.38;10.65;;;;;;;10.79;93.49;101720.00;5088160;28;20036;-74
2022/10/13 03:41:09;;;;;;;22.20;10.40;;;;;;;10.81;93.59;101709.00;5087948;28;20044;-74
2022/10/13 03:43:35;;;;;;;19.30;10.38;;;;;;;10.80;94.22;101708.13;5088085;28;20090;-74
2022/10/13 03:46:02;;;;;;;19.95;9.43;;;;;;;10.82;93.74;101703.50;5087822;28;20040;-74
2022/10/13 03:48:28;;;;;;;19.95;10.10;;;;;;;10.83;94.06;101712.53;5087365;28;20071;-74
2022/10/13 03:50:54;;;;;;;20.98;11.23;;;;;;;10.82;93.87;101702.59;5088234;28;20028;-74
2022/10/13 03:53:20;;;;;;;20.58;11.13;;;;;;;10.83;93.55;101697.09;5070069;28;20073;-74
2022/10/13 03:55:53;;;;;;;21.58;10.23;;;;;;;10.86;93.46;101696.00;5087995;28;20035;-74
2022/10/13 03:58:20;;;;;;;16.42;10.02;;;;;;;10.85;93.73;101689.69;5090764;28;20118;-75
2022/10/13 04:00:49;;;;;;;19.75;10.23;;;;;;;10.88;93.64;101680.47;5091799;28;20036;-74
2022/10/13 04:03:15;;;;;;;21.40;10.20;;;;;;;10.88;93.35;101684.06;5090565;28;20036;-74
2022/10/13 04:05:41;;;;;;;18.50;10.07;;;;;;;10.91;93.46;101672.09;5091589;28;20527;-74
2022/10/13 04:08:06;;;;;;;17.73;9.32;;;;;;;10.92;93.47;101674.75;5091598;28;20122;-74
2022/10/13 04:10:31;;;;;;;20.08;9.52;;;;;;;10.92;93.47;101682.91;5091486;28;20032;-74
2022/10/13 04:12:57;;;;;;;15.48;9.80;;;;;;;10.93;93.39;101675.63;5091760;28;20036;-74
2022/10/13 04:15:22;;;;;;;19.33;10.13;;;;;;;10.95;93.37;101674.53;5090215;28;20036;-74
2022/10/13 04:17:48;;;;;;;22.55;10.70;;;;;;;10.98;93.04;101684.38;5090195;28;20075;-74
2022/10/13 04:20:13;;;;;;;21.25;10.98;;;;;;;10.98;92.90;101678.94;5091487;28;20024;-74
2022/10/13 04:22:38;;;;;;;17.85;9.65;;;;;;;10.97;92.84;101669.03;5073412;28;20498;-74
2022/10/13 04:25:04;;;;;;;18.67;9.50;;;;;;;11.00;93.22;101666.09;5108012;28;20036;-74
2022/10/13 04:27:30;;;;;;;20.70;9.75;;;;;;;11.01;93.05;101667.00;5108653;28;20332;-75
2022/10/13 04:29:55;;;;;;;24.70;10.30;;;;;;;11.05;92.56;101663.09;5104495;28;20031;-74
2022/10/13 04:32:21;;;;;;;18.67;9.77;;;;;;;11.06;92.98;101656.69;5089999;28;20040;-74
2022/10/13 04:34:46;;;;;;;21.33;9.52;;;;;;;11.07;93.00;101655.72;5089944;28;20504;-75
2022/10/13 04:37:11;;;;;;;17.45;9.63;;;;;;;11.07;92.78;101659.31;5105900;28;20023;-74
2022/10/13 04:39:37;;;;;;;22.90;10.40;;;;;;;11.06;92.84;101659.41;5091081;28;20032;-74
2022/10/13 04:42:02;;;;;;;20.60;11.20;;;;;;;11.05;93.00;101664.00;5089781;28;20458;-75
2022/10/13 04:44:28;;;;;;;20.08;10.05;;;;;;;11.04;93.02;101664.94;5091033;28;20491;-74
2022/10/13 04:46:54;;;;;;;19.20;9.82;;;;;;;11.06;92.94;101663.00;5091314;28;20036;-74
2022/10/13 04:49:19;;;;;;;18.75;10.20;;;;;;;11.08;92.66;101657.47;5089599;28;20024;-74
2022/10/13 04:51:45;;;;;;;23.15;9.70;;;;;;;11.07;92.68;101653.00;5091038;28;20496;-74
2022/10/13 04:54:10;;;;;;;20.15;10.50;;;;;;;11.07;92.48;101661.16;5089628;28;20032;-74
2022/10/13 04:56:36;;;;;;;22.88;9.73;;;;;;;11.03;92.80;101660.47;5091052;28;20036;-73
2022/10/13 04:59:04;;;;;;;18.38;9.40;;;;;;;11.01;92.71;101662.44;5099742;28;20371;-74
2022/10/13 05:01:30;;;;;;;22.27;10.60;;;;;;;10.99;92.97;101670.66;5097947;28;20043;-74
2022/10/13 05:03:58;;;;;;;20.73;10.13;;;;;;;10.99;92.80;101658.91;5100478;28;20019;-74
2022/10/13 05:06:27;;;;;;;19.42;10.30;;;;;;;10.97;92.75;101658.13;5106472;28;20534;-75
2022/10/13 05:08:56;;;;;;;22.60;9.98;;;;;;;10.97;92.89;101637.22;5110765;28;20070;-74
2022/10/13 05:11:23;;;;;;;21.83;11.15;;;;;;;10.96;92.99;101632.75;5109493;28;20367;-74
2022/10/13 05:13:48;;;;;;;19.25;9.13;;;;;;;10.97;93.05;101647.25;5098296;28;20543;-75
2022/10/13 05:16:16;;;;;;;19.80;9.70;;;;;;;10.93;93.37;101652.00;5090237;28;20066;-74
2022/10/13 05:18:42;;;;;;;21.10;10.10;;;;;;;10.90;93.48;101644.00;5088961;28;20028;-74
2022/10/13 05:21:22;;;;;;;23.33;10.80;;;;;;;10.87;93.53;101655.09;5090477;28;20051;-74
2022/10/13 05:23:47;;;;;;;22.65;11.15;;;;;;;10.89;93.58;101660.44;5090199;28;20127;-74
2022/10/13 05:26:16;;;;;;;16.15;9.40;;;;;;;10.86;93.43;101657.88;5109927;28;20073;-74
2022/10/13 05:28:42;;;;;;;21.10;9.85;;;;;;;10.85;93.30;101662.47;5099230;28;20391;-74
2022/10/13 05:31:17;;;;;;;22.63;9.52;;;;;;;10.85;93.51;101659.75;5083929;28;20103;-74
2022/10/13 05:33:44;;;;;;;23.13;10.65;;;;;;;10.86;93.72;101666.06;5099694;28;20039;-74
2022/10/13 05:36:15;;;;;;;23.05;11.13;;;;;;;10.82;93.50;101659.94;5098872;28;20573;-74
2022/10/13 05:38:41;;;;;;;20.80;11.15;;;;;;;10.83;93.74;101672.59;5103700;28;20479;-74
2022/10/13 05:41:09;;;;;;;24.75;10.38;;;;;;;10.80;93.58;101674.59;5110407;28;20165;-74
2022/10/13 05:43:35;;;;;;;22.45;11.00;;;;;;;10.79;93.89;101664.69;5087103;28;20063;-74
2022/10/13 05:46:01;;;;;;;24.40;11.18;;;;;;;10.77;94.11;101663.88;5089435;28;20044;-74
2022/10/13 05:48:28;;;;;;;20.13;10.68;;;;;;;10.75;94.08;101665.84;5090378;28;20391;-74
2022/10/13 05:50:55;;;;;;;18.95;10.80;;;;;;;10.76;94.23;101665.75;5088728;28;20028;-74
2022/10/13 05:53:24;;;;;;;21.10;9.90;;;;;;;10.75;94.37;101657.69;5097564;28;20031;-74
2022/10/13 05:55:52;;;;;;;19.98;10.73;;;;;;;10.67;94.41;101650.84;5110047;28;20039;-74
2022/10/13 05:58:17;;;;;;;20.05;10.43;;;;;;;10.70;94.40;101655.22;5106766;28;20134;-74
2022/10/13 06:00:43;;;;;;;22.80;10.77;;;;;;;10.72;94.37;101656.00;5097735;28;20028;-74
2022/10/13 06:03:13;;;;;;;28.75;11.20;;;;;;;10.69;94.67;101648.91;5089636;28;20032;-74
2022/10/13 06:05:46;;;;;;;19.75;9.95;;;;;;;10.67;94.57;101669.88;5088275;28;20355;-74
2022/10/13 06:08:13;;;;;;;19.77;10.65;;;;;;;10.68;94.94;101663.50;5088018;28;20585;-74
2022/10/13 06:10:39;;;;;;;26.42;10.57;;;;;;;10.68;95.05;101662.63;5089447;28;20047;-74
2022/10/13 06:13:04;;;;;;;23.95;10.93;;;;;;;10.69;95.07;101645.31;5087786;28;20042;-74
2022/10/13 06:15:30;;;;;;;29.60;11.15;;;;;;;10.74;94.68;101648.63;5090392;28;20027;-74
2022/10/13 06:17:56;;;;;;;20.88;10.90;;;;;;;10.78;94.63;101647.50;5091829;28;20028;-74
2022/10/13 06:20:21;;;;;;;19.33;10.50;;;;;;;10.82;94.73;101634.53;5108992;28;20327;-74
2022/10/13 06:22:49;;;;;;;20.85;10.45;;;;;;;10.85;93.96;101647.97;5107359;28;20461;-74
2022/10/13 06:25:14;;;;;;;21.95;10.02;;;;;;;10.86;94.09;101645.16;5090031;28;20043;-74
2022/10/13 06:27:40;;;;;;;21.45;10.20;;;;;;;10.87;94.31;101636.03;5089469;28;20036;-74
2022/10/13 06:30:06;;;;;;;22.83;10.95;;;;;;;10.90;94.16;101634.97;5091876;28;20106;-74
2022/10/13 06:32:31;;;;;;;21.98;11.18;;;;;;;10.90;94.02;101634.97;5095482;28;20070;-74
2022/10/13 06:34:57;;;;;;;19.20;10.65;;;;;;;10.92;94.22;101633.03;5097204;28;20028;-74
2022/10/13 06:37:22;;;;;;;23.25;11.20;;;;;;;10.96;94.13;101638.19;5087434;28;20126;-74
2022/10/13 06:39:47;;;;;;;24.08;12.40;;;;;;;10.98;94.08;101638.97;5089117;28;20100;-74
2022/10/13 06:42:13;;;;;;;27.42;11.13;;;;;;;11.02;93.77;101641.50;5089016;28;20036;-74
2022/10/13 06:44:40;;;;;;;26.50;10.77;;;;;;;11.04;94.12;101640.44;5087670;28;20035;-74
2022/10/13 06:47:05;;;;;;;24.95;11.07;;;;;;;11.05;94.02;101625.88;5088097;28;20039;-75
2022/10/13 06:49:31;;;;;;;19.95;10.90;;;;;;;11.08;94.24;101620.22;5087819;28;20030;-74
2022/10/13 06:51:56;;;;;;;24.02;11.55;;;;;;;11.10;94.07;101642.81;5109664;28;20019;-74
2022/10/13 06:54:21;;;;;;;21.55;10.95;;;;;;;11.11;94.06;101635.50;5094058;28;20100;-74
2022/10/13 06:56:47;;;;;;;24.13;10.68;;;;;;;11.13;93.77;101631.69;5100542;28;20020;-74
2022/10/13 06:59:12;;;;;;;24.00;11.68;;;;;;;11.17;93.82;101632.38;5089358;28;20031;-73
2022/10/13 07:01:39;;;;;;;23.95;10.98;;;;;;;11.21;93.68;101632.09;5088803;28;20085;-74
2022/10/13 07:04:07;;;;;;;26.50;11.65;;;;;;;11.24;93.70;101621.03;5089156;28;20378;-74
2022/10/13 07:06:32;;;;;;;21.33;11.35;;;;;;;11.28;93.34;101621.69;5088024;28;20110;-74
2022/10/13 07:08:58;;;;;;;22.90;11.70;;;;;;;11.28;93.59;101618.97;5071171;28;20128;-74
2022/10/13 07:11:23;;;;;;;23.08;10.82;;;;;;;11.31;93.41;101626.06;5088138;28;20044;-74
2022/10/13 07:13:53;;;;;;;24.67;11.73;;;;;;;11.33;93.14;101625.03;5087714;28;20386;-74
2022/10/13 07:16:18;;;;;;;21.77;11.27;;;;;;;11.37;92.94;101631.13;5070653;28;20108;-74
2022/10/13 07:18:46;;;;;;;29.83;12.85;;;;;;;11.39;92.96;101637.38;5087805;28;20655;-74
2022/10/13 07:21:11;;;;;;;23.15;11.35;;;;;;;11.42;93.05;101642.59;5089117;28;20075;-74
2022/10/13 07:23:36;;;;;;;24.60;12.05;;;;;;;11.43;92.44;101626.19;5088933;28;20082;-74
2022/10/13 07:26:06;;;;;;;25.45;12.07;;;;;;;11.48;92.96;101639.50;5107050;28;20040;-74
2022/10/13 07:28:31;;;;;;;24.33;12.55;;;;;;;11.49;92.79;101641.25;5098482;28;20075;-74
2022/10/13 07:30:57;;;;;;;24.55;12.32;;;;;;;11.53;92.71;101636.50;5087318;28;20497;-74
2022/10/13 07:33:22;;;;;;;19.23;10.63;;;;;;;11.54;93.25;101640.97;5091728;28;20498;-74
2022/10/13 07:35:48;;;;;;;20.25;10.75;;;;;;;11.56;92.77;101636.28;5091696;28;20045;-74
2022/10/13 07:38:13;;;;;;;25.15;11.32;;;;;;;11.58;92.78;101640.69;5092973;28;20491;-74
2022/10/13 07:40:41;;;;;;;25.50;11.73;;;;;;;11.61;92.75;101636.84;5095482;28;20024;-74
2022/10/13 07:43:07;;;;;;;28.27;11.52;;;;;;;11.63;92.44;101634.94;5087156;28;20401;-74
2022/10/13 07:45:32;;;;;;;26.85;11.77;;;;;;;11.66;92.10;101637.47;5095966;28;20036;-74
2022/10/13 07:47:57;;;;;;;26.60;11.98;;;;;;;11.69;92.34;101638.13;5093339;28;20043;-73
2022/10/13 07:50:23;;;;;;;23.05;11.18;;;;;;;11.75;92.13;101636.88;5091128;28;20035;-74
2022/10/13 07:52:48;;;;;;;22.95;11.18;;;;;;;11.78;91.88;101639.38;5108448;28;20032;-76
2022/10/13 07:55:13;;;;;;;26.27;12.32;;;;;;;11.84;91.89;101633.56;5092835;28;20035;-74
2022/10/13 07:57:39;;;;;;;22.83;12.02;;;;;;;11.90;91.53;101632.31;5090849;28;20032;-74
2022/10/13 08:00:05;;;;;;;24.70;11.90;;;;;;;12.00;91.46;101638.91;5092542;28;20024;-74
2022/10/13 08:02:37;;;;;;;21.23;11.82;;;;;;;12.06;91.42;101635.75;5112817;28;20043;-74
2022/10/13 08:05:04;;;;;;;23.67;12.32;;;;;;;12.14;90.85;101635.25;5112911;28;20070;-74
2022/10/13 08:07:29;;;;;;;27.15;12.40;;;;;;;12.20;91.68;101640.31;5094421;28;20027;-74
2022/10/13 08:09:55;;;;;;;32.58;12.85;;;;;;;12.29;91.33;101642.41;5106967;28;20043;-74
2022/10/13 08:12:20;;;;;;;25.05;12.45;;;;;;;12.36;90.76;101642.91;5090966;28;20036;-74
2022/10/13 08:14:49;;;;;;;26.85;13.40;;;;;;;12.44;90.11;101632.31;5101618;28;20050;-74
2022/10/13 08:17:14;;;;;;;24.42;12.50;;;;;;;12.48;90.04;101623.81;5073792;28;20036;-75
2022/10/13 08:19:40;;;;;;;27.75;12.85;;;;;;;12.57;89.55;101630.50;5090916;28;20063;-74
2022/10/13 08:22:05;;;;;;;28.90;12.50;;;;;;;12.59;88.47;101627.66;5074123;28;20031;-74
2022/10/13 08:24:31;;;;;;;27.30;13.02;;;;;;;12.60;88.15;101627.56;5090752;28;20479;-74
2022/10/13 08:26:56;;;;;;;25.83;13.38;;;;;;;12.65;88.88;101630.00;5074102;28;20040;-74
2022/10/13 08:29:22;;;;;;;21.25;12.52;;;;;;;12.71;87.87;101630.44;5091910;28;20119;-74
2022/10/13 08:31:47;;;;;;;22.25;12.40;;;;;;;12.72;87.40;101631.31;5090147;28;20471;-74
2022/10/13 08:34:13;;;;;;;28.63;13.35;;;;;;;12.80;88.51;101623.47;5091893;28;20145;-74
2022/10/13 08:36:38;;;;;;;23.60;12.27;;;;;;;12.85;87.85;101620.41;5092064;28;20372;-74
2022/10/13 08:39:04;;;;;;;22.90;12.02;;;;;;;12.89;86.86;101614.63;5091717;28;20035;-74
2022/10/13 08:41:35;;;;;;;27.65;12.45;;;;;;;12.96;87.44;101613.25;5091664;28;20043;-75
2022/10/13 08:44:09;;;;;;;23.38;12.40;;;;;;;13.07;86.68;101619.78;5100402;28;20048;-75
2022/10/13 08:46:50;;;;;;;25.38;12.55;;;;;;;13.13;86.38;101619.34;5092397;28;20058;-75
2022/10/13 08:49:15;;;;;;;21.40;12.35;;;;;;;13.16;85.98;101620.03;5073459;28;20435;-74
2022/10/13 08:51:42;;;;;;;23.50;11.60;;;;;;;13.22;86.04;101624.19;5090217;28;20170;-75
2022/10/13 08:54:13;;;;;;;21.58;12.02;;;;;;;13.25;85.55;101624.00;5104494;28;20016;-74
2022/10/13 08:56:38;;;;;;;25.70;11.82;;;;;;;13.27;85.44;101622.88;5102072;28;20047;-74
2022/10/13 08:59:04;;;;;;;28.38;12.05;;;;;;;13.32;86.06;101619.81;5097661;28;20036;-74
2022/10/13 09:01:35;;;;;;;18.63;11.77;;;;;;;13.36;85.12;101620.47;5090856;28;20068;-74
2022/10/13 09:04:09;;;;;;;32.17;12.63;;;;;;;13.37;84.91;101611.28;5090231;28;20065;-74
2022/10/13 09:06:43;;;;;;;26.10;12.43;;;;;;;13.37;85.16;101612.16;5105699;28;20032;-74
2022/10/13 09:09:13;;;;;;;25.85;11.75;;;;;;;13.38;86.04;101603.00;5111392;28;20425;-74
2022/10/13 09:11:44;;;;;;;21.98;10.70;;;;;;;13.34;85.13;101604.19;5109281;28;20447;-74
2022/10/13 09:14:34;;;;;;;21.88;10.80;;;;;;;13.37;85.53;101600.34;5079894;28;20032;-74
2022/10/13 09:17:18;;;;;;;23.10;12.48;;;;;;;13.32;85.09;101602.56;5090881;28;20547;-74
2022/10/13 09:20:15;;;;;;;26.50;11.13;;;;;;;13.28;85.67;101605.50;5089694;28;20032;-74
2022/10/13 09:22:41;;;;;;;25.92;11.60;;;;;;;13.25;84.56;101610.31;5062487;28;20048;-75
2022/10/13 09:25:11;;;;;;;22.85;10.57;;;;;;;13.23;85.18;101613.16;5090707;28;20032;-75
2022/10/13 09:27:51;;;;;;;21.42;10.93;;;;;;;13.20;85.31;101604.28;5089001;28;20514;-74
2022/10/13 09:30:38;;;;;;;23.98;11.23;;;;;;;13.19;85.82;101607.97;5089601;28;20059;-74
2022/10/13 09:33:03;;;;;;;22.05;11.95;;;;;;;13.17;85.46;101601.75;5109965;28;20040;-74
2022/10/13 09:35:31;;;;;;;23.02;11.10;;;;;;;13.18;84.67;101603.50;5109895;28;20024;-74
2022/10/13 09:38:08;;;;;;;19.45;10.70;;;;;;;13.21;85.81;101603.28;5105113;28;20495;-74
2022/10/13 09:40:34;;;;;;;23.70;11.98;;;;;;;13.27;85.91;101591.94;5090595;28;20086;-74
2022/10/13 09:43:04;;;;;;;20.73;10.85;;;;;;;13.32;85.71;101594.34;5093192;28;20471;-74
2022/10/13 09:45:29;;;;;;;22.52;10.75;;;;;;;13.37;84.10;101598.50;5071934;28;20498;-74
2022/10/13 09:48:06;;;;;;;21.98;11.15;;;;;;;13.39;85.24;101596.53;5090831;28;20123;-74
2022/10/13 09:50:34;;;;;;;21.20;11.00;;;;;;;13.37;85.18;101598.50;5072497;28;20028;-75
2022/10/13 09:53:20;;;;;;;21.65;11.35;;;;;;;13.37;85.39;101593.03;5072150;28;20032;-74
2022/10/13 09:55:47;;;;;;;22.25;10.45;;;;;;;13.34;85.03;101597.88;5089183;28;20046;-74
2022/10/13 09:58:25;;;;;;;22.10;10.73;;;;;;;13.34;84.46;101597.88;5090391;28;20081;-74
2022/10/13 10:00:52;;;;;;;24.02;12.27;;;;;;;13.27;84.51;101598.28;5089751;28;20036;-74
2022/10/13 10:03:22;;;;;;;23.90;11.50;;;;;;;13.21;85.60;101595.09;5088931;28;20066;-74
2022/10/13 10:05:56;;;;;;;20.45;11.05;;;;;;;13.18;86.25;101598.91;5088852;28;20036;-75
2022/10/13 10:08:52;;;;;;;24.23;11.68;;;;;;;13.15;86.68;101599.16;5089052;28;20055;-75
2022/10/13 10:11:26;;;;;;;20.13;10.98;;;;;;;13.12;87.64;101585.69;5088927;28;20514;-76
2022/10/13 10:13:52;;;;;;;26.77;12.73;;;;;;;13.15;88.20;101585.50;5095004;28;20031;-76
2022/10/13 10:16:30;;;;;;;25.58;12.52;;;;;;;13.17;88.40;101580.78;5093552;28;20452;-76
2022/10/13 10:19:01;;;;;;;23.88;13.05;;;;;;;13.17;88.15;101579.91;5090396;28;20067;-76
2022/10/13 10:21:44;;;;;;;24.25;12.20;;;;;;;13.15;88.99;101590.97;5089201;28;20094;-76
2022/10/13 10:24:34;;;;;;;23.00;13.00;;;;;;;13.16;88.27;101586.34;5088600;28;20035;-76
2022/10/13 10:27:12;;;;;;;27.58;13.88;;;;;;;13.11;88.52;101589.41;5088381;28;20054;-76
2022/10/13 10:29:49;;;;;;;23.60;13.73;;;;;;;13.05;88.70;101586.22;5088366;28;20498;-76
2022/10/13 10:32:56;;;;;;;21.15;11.27;;;;;;;13.00;88.83;101586.56;5089574;28;20142;-76
2022/10/13 10:36:05;;;;;;;26.45;13.73;;;;;;;12.93;89.82;101580.66;5050598;28;20625;-76
2022/10/13 10:38:42;;;;;;;27.13;13.65;;;;;;;12.89;90.85;101578.25;5089456;28;20102;-75
2022/10/13 10:41:25;;;;;;;28.95;13.32;;;;;;;12.88;91.18;101577.38;5088178;28;20043;-76
2022/10/13 10:44:03;;;;;;;27.00;14.88;;;;;;;12.87;90.68;101574.75;5098410;28;20426;-75
2022/10/13 10:46:35;;;;;;;27.20;14.25;;;;;;;12.87;90.88;101580.22;5093006;28;20036;-76
2022/10/13 10:49:09;;;;;;;29.00;13.85;;;;;;;12.90;92.15;101580.88;5088239;28;20065;-76
2022/10/13 10:51:36;;;;;;;24.52;13.40;;;;;;;12.91;91.50;101576.28;5088286;28;20028;-76
2022/10/13 10:54:16;;;;;;;26.67;13.88;;;;;;;12.93;91.79;101585.25;5100441;28;20039;-76
2022/10/13 10:56:47;;;;;;;25.70;13.50;;;;;;;12.97;92.01;101574.00;5109448;28;20105;-75
2022/10/13 10:59:25;;;;;;;23.48;13.52;;;;;;;13.02;91.88;101582.75;5077818;28;20044;-75
2022/10/13 11:02:05;;;;;;;27.92;14.70;;;;;;;13.08;91.38;101578.69;5087115;28;20495;-76
2022/10/13 11:04:43;;;;;;;29.85;14.02;;;;;;;13.07;91.13;101568.75;5087714;28;20036;-76
2022/10/13 11:07:23;;;;;;;25.92;13.73;;;;;;;13.10;91.13;101559.47;5070688;28;20123;-76
2022/10/13 11:09:51;;;;;;;27.52;13.80;;;;;;;13.07;91.76;101560.56;5089127;28;20047;-75
2022/10/13 11:12:20;;;;;;;26.88;13.40;;;;;;;13.08;91.57;101553.25;5070927;28;20520;-76
2022/10/13 11:14:47;;;;;;;24.00;13.85;;;;;;;13.08;91.52;101553.25;5089106;28;20108;-76
2022/10/13 11:17:25;;;;;;;20.45;13.15;;;;;;;13.14;92.17;101552.78;5088976;28;20085;-76
2022/10/13 11:19:52;;;;;;;28.73;15.82;;;;;;;13.13;92.85;101554.66;5087858;28;20035;-76